Time;durP1;ratioP1;P1;durP2;ratioP2;P2;SDS_P1;SDS_P2;PMS_P1;PMS_P2;Temp;Humidity;BMP_temperature;BMP_pressure;BME280_temperature;BME280_humidity;BME280_pressure;Samples;Min_cycle;Max_cycle;Signal;HPM_P1;HPM_P2
2023/03/14 00:00:19;;;;;;;10.75;1.55;;;;;;;;;;6189000;23;20439;-80
2023/03/14 00:02:45;;;;;;;14.55;2.38;;;;;;;;;;6189834;23;19997;-80
2023/03/14 00:05:11;;;;;;;11.02;1.88;;;;;;;;;;6189370;23;20004;-79
2023/03/14 00:07:38;;;;;;;14.48;2.70;;;;;;;;;;6189928;23;20055;-79
2023/03/14 00:10:09;;;;;;;11.55;3.17;;;;;;;;;;6189463;23;19997;-79
2023/03/14 00:12:35;;;;;;;11.30;1.95;;;;;;;;;;6189589;23;20004;-80
2023/03/14 00:15:03;;;;;;;11.32;1.80;;;;;;;;;;6190208;23;19997;-80
2023/03/14 00:17:38;;;;;;;13.23;1.90;;;;;;;;;;6190030;23;20088;-80
2023/03/14 00:20:11;;;;;;;10.50;2.88;;;;;;;;;;6189827;23;20009;-79
2023/03/14 00:22:37;;;;;;;15.43;3.53;;;;;;;;;;6189775;23;20088;-80
2023/03/14 00:25:04;;;;;;;13.15;2.58;;;;;;;;;;6188936;23;19997;-79
2023/03/14 00:27:30;;;;;;;15.73;2.47;;;;;;;;;;6189201;23;20001;-80
2023/03/14 00:29:56;;;;;;;10.88;2.33;;;;;;;;;;6189058;23;20005;-79
2023/03/14 00:32:22;;;;;;;11.82;1.90;;;;;;;;;;6188977;23;19997;-79
2023/03/14 00:34:48;;;;;;;11.15;2.78;;;;;;;;;;6189243;23;20001;-79
2023/03/14 00:37:14;;;;;;;12.32;2.20;;;;;;;;;;6188362;23;20020;-80
2023/03/14 00:39:40;;;;;;;13.93;3.17;;;;;;;;;;6188858;23;20001;-80
2023/03/14 00:42:06;;;;;;;12.70;1.85;;;;;;;;;;6189091;23;20001;-80
2023/03/14 00:44:32;;;;;;;17.83;2.50;;;;;;;;;;6188599;23;20001;-79
2023/03/14 00:46:58;;;;;;;15.60;2.65;;;;;;;;;;6187905;23;20001;-80
2023/03/14 00:49:25;;;;;;;17.83;2.20;;;;;;;;;;6188553;23;19997;-79
2023/03/14 00:51:51;;;;;;;13.57;2.15;;;;;;;;;;6189131;23;20331;-79
2023/03/14 00:54:17;;;;;;;14.77;2.35;;;;;;;;;;6190361;23;20001;-79
2023/03/14 00:56:43;;;;;;;13.00;1.73;;;;;;;;;;6191433;23;20008;-79
2023/03/14 00:59:09;;;;;;;11.23;2.35;;;;;;;;;;6189903;23;20085;-79
2023/03/14 01:01:45;;;;;;;10.35;2.30;;;;;;;;;;6189824;23;19997;-79
2023/03/14 01:04:22;;;;;;;13.10;1.90;;;;;;;;;;6190263;23;20052;-79
2023/03/14 01:06:48;;;;;;;12.90;1.95;;;;;;;;;;6190203;23;20001;-79
2023/03/14 01:09:16;;;;;;;14.45;2.40;;;;;;;;;;6189741;23;20007;-79
2023/03/14 01:11:43;;;;;;;12.68;2.92;;;;;;;;;;6190041;23;20001;-80
2023/03/14 01:14:10;;;;;;;12.90;2.40;;;;;;;;;;6190131;23;20001;-80
2023/03/14 01:16:36;;;;;;;21.77;2.75;;;;;;;;;;6190146;23;20009;-79
2023/03/14 01:19:03;;;;;;;11.48;2.42;;;;;;;;;;6189727;23;20029;-79
2023/03/14 01:21:31;;;;;;;14.82;2.70;;;;;;;;;;6189932;23;20644;-79
2023/03/14 01:23:57;;;;;;;18.13;3.05;;;;;;;;;;6190744;23;20029;-80
2023/03/14 01:26:24;;;;;;;14.48;2.15;;;;;;;;;;6189886;23;20432;-80
2023/03/14 01:28:51;;;;;;;20.73;2.40;;;;;;;;;;6190150;23;20012;-80
2023/03/14 01:31:17;;;;;;;9.90;1.60;;;;;;;;;;6189964;23;20458;-79
2023/03/14 01:33:43;;;;;;;12.75;2.55;;;;;;;;;;6190061;23;19997;-80
2023/03/14 01:36:10;;;;;;;17.17;2.35;;;;;;;;;;6190852;23;20001;-79
2023/03/14 01:38:37;;;;;;;11.23;2.22;;;;;;;;;;6189401;23;20081;-79
2023/03/14 01:41:03;;;;;;;16.02;2.72;;;;;;;;;;6188725;23;19997;-79
2023/03/14 01:43:30;;;;;;;16.63;2.15;;;;;;;;;;6188400;23;20439;-79
2023/03/14 01:46:08;;;;;;;12.13;2.83;;;;;;;;;;6188536;23;20001;-79
2023/03/14 01:48:54;;;;;;;13.65;2.15;;;;;;;;;;6189191;23;20080;-79
2023/03/14 01:51:29;;;;;;;21.42;2.92;;;;;;;;;;6188498;23;19997;-79
2023/03/14 01:54:00;;;;;;;14.52;2.38;;;;;;;;;;6188283;23;20562;-80
2023/03/14 01:56:27;;;;;;;15.13;1.77;;;;;;;;;;6187864;23;19997;-79
2023/03/14 01:58:53;;;;;;;14.45;2.38;;;;;;;;;;6187342;23;20432;-80
2023/03/14 02:01:21;;;;;;;10.88;2.20;;;;;;;;;;6187824;23;20060;-80
2023/03/14 02:03:50;;;;;;;12.77;2.05;;;;;;;;;;6188008;23;20005;-79
2023/03/14 02:06:18;;;;;;;12.40;2.15;;;;;;;;;;6187449;23;20071;-79
2023/03/14 02:08:48;;;;;;;15.55;2.58;;;;;;;;;;6187819;23;20001;-79
2023/03/14 02:11:14;;;;;;;12.88;2.17;;;;;;;;;;6187723;23;19994;-79
2023/03/14 02:13:40;;;;;;;13.77;2.28;;;;;;;;;;6187818;23;20004;-79
2023/03/14 02:16:06;;;;;;;13.43;1.83;;;;;;;;;;6186432;23;20451;-79
2023/03/14 02:18:33;;;;;;;15.43;2.28;;;;;;;;;;6188644;23;20001;-79
2023/03/14 02:21:05;;;;;;;11.48;2.15;;;;;;;;;;6188051;23;20486;-79
2023/03/14 02:23:34;;;;;;;9.13;1.88;;;;;;;;;;6187885;23;20416;-79
2023/03/14 02:26:09;;;;;;;18.75;3.15;;;;;;;;;;6161367;23;20015;-80
2023/03/14 02:28:58;;;;;;;13.93;1.90;;;;;;;;;;6187812;23;20087;-80
2023/03/14 02:31:37;;;;;;;15.50;2.70;;;;;;;;;;6187119;23;20297;-79
2023/03/14 02:34:04;;;;;;;15.73;1.97;;;;;;;;;;6187920;23;20008;-79
2023/03/14 02:36:30;;;;;;;14.85;2.03;;;;;;;;;;6187319;23;20005;-79
2023/03/14 02:39:04;;;;;;;14.70;2.22;;;;;;;;;;6187432;23;19997;-79
2023/03/14 02:41:30;;;;;;;14.93;2.80;;;;;;;;;;6188027;23;20019;-80
2023/03/14 02:43:56;;;;;;;9.52;2.45;;;;;;;;;;6188097;23;20459;-79
2023/03/14 02:46:22;;;;;;;13.73;2.30;;;;;;;;;;6187769;23;20001;-79
2023/03/14 02:48:48;;;;;;;14.85;2.35;;;;;;;;;;6188066;23;20001;-79
2023/03/14 02:51:15;;;;;;;11.57;2.13;;;;;;;;;;6187539;23;20004;-79
2023/03/14 02:53:42;;;;;;;17.08;2.72;;;;;;;;;;6188101;23;20436;-79
2023/03/14 02:56:09;;;;;;;12.88;2.97;;;;;;;;;;6188096;23;20004;-79
2023/03/14 02:58:35;;;;;;;16.33;2.58;;;;;;;;;;6188055;23;19993;-79
2023/03/14 03:01:01;;;;;;;20.38;2.75;;;;;;;;;;6187811;23;20072;-79
2023/03/14 03:03:27;;;;;;;18.67;3.20;;;;;;;;;;6187607;23;20032;-80
2023/03/14 03:05:54;;;;;;;16.85;2.58;;;;;;;;;;6188516;23;20001;-79
2023/03/14 03:08:21;;;;;;;19.33;2.83;;;;;;;;;;6188357;23;20008;-80
2023/03/14 03:10:47;;;;;;;17.67;2.83;;;;;;;;;;6188533;23;20323;-80
2023/03/14 03:13:20;;;;;;;17.33;3.60;;;;;;;;;;6191357;23;20019;-79
2023/03/14 03:15:48;;;;;;;22.08;2.13;;;;;;;;;;6192492;23;20039;-79
2023/03/14 03:18:14;;;;;;;18.73;2.60;;;;;;;;;;6164828;23;20051;-79
2023/03/14 03:20:40;;;;;;;20.73;3.25;;;;;;;;;;6191899;23;20005;-79
2023/03/14 03:23:06;;;;;;;23.42;3.83;;;;;;;;;;6191572;23;20004;-79
2023/03/14 03:25:32;;;;;;;23.08;3.00;;;;;;;;;;6191405;23;20001;-79
2023/03/14 03:27:58;;;;;;;19.08;2.85;;;;;;;;;;6190533;23;20001;-79
2023/03/14 03:30:24;;;;;;;19.05;3.70;;;;;;;;;;6190829;23;20442;-79
2023/03/14 03:32:50;;;;;;;12.27;2.42;;;;;;;;;;6191113;23;20079;-79
2023/03/14 03:35:16;;;;;;;17.13;3.13;;;;;;;;;;6191109;23;19997;-79
2023/03/14 03:37:42;;;;;;;18.52;3.05;;;;;;;;;;6191213;23;20004;-79
2023/03/14 03:40:08;;;;;;;17.02;2.60;;;;;;;;;;6191980;23;20044;-80
2023/03/14 03:42:35;;;;;;;17.88;2.90;;;;;;;;;;6191956;23;19997;-79
2023/03/14 03:45:01;;;;;;;17.35;2.67;;;;;;;;;;6191557;23;19997;-79
2023/03/14 03:47:27;;;;;;;14.02;2.72;;;;;;;;;;6164823;23;20009;-79
2023/03/14 03:49:53;;;;;;;16.13;2.95;;;;;;;;;;6191737;23;20044;-79
2023/03/14 03:52:20;;;;;;;19.48;2.63;;;;;;;;;;6191603;23;20001;-79
2023/03/14 03:54:46;;;;;;;15.80;3.10;;;;;;;;;;6191087;23;19997;-80
2023/03/14 03:57:13;;;;;;;21.48;3.10;;;;;;;;;;6191079;23;20023;-79
2023/03/14 03:59:40;;;;;;;14.32;2.92;;;;;;;;;;6190805;23;20044;-79
2023/03/14 04:02:07;;;;;;;15.15;3.03;;;;;;;;;;6191874;23;20201;-79
2023/03/14 04:04:32;;;;;;;20.33;2.55;;;;;;;;;;6165763;23;20005;-79
2023/03/14 04:06:58;;;;;;;15.32;2.95;;;;;;;;;;6192482;23;20055;-79
2023/03/14 04:09:24;;;;;;;21.08;2.60;;;;;;;;;;6193487;23;20001;-80
2023/03/14 04:11:50;;;;;;;17.42;3.60;;;;;;;;;;6191925;23;20083;-80
2023/03/14 04:14:16;;;;;;;19.75;2.83;;;;;;;;;;6192626;23;20075;-80
2023/03/14 04:16:42;;;;;;;15.50;2.35;;;;;;;;;;6196314;23;20008;-79
2023/03/14 04:19:08;;;;;;;16.20;2.40;;;;;;;;;;6189320;23;20005;-80
2023/03/14 04:21:34;;;;;;;13.10;2.72;;;;;;;;;;6189297;23;20001;-79
2023/03/14 04:24:00;;;;;;;16.90;2.47;;;;;;;;;;6189257;23;20008;-80
2023/03/14 04:26:26;;;;;;;13.00;2.25;;;;;;;;;;6188959;23;20361;-79
2023/03/14 04:28:52;;;;;;;15.07;2.58;;;;;;;;;;6189018;23;20005;-79
2023/03/14 04:31:20;;;;;;;14.88;2.47;;;;;;;;;;6188649;23;20706;-79
2023/03/14 04:33:46;;;;;;;11.02;1.80;;;;;;;;;;6188544;23;20019;-79
2023/03/14 04:36:12;;;;;;;10.63;1.92;;;;;;;;;;6188190;23;20289;-79
2023/03/14 04:38:38;;;;;;;21.33;2.45;;;;;;;;;;6188678;23;20076;-79
2023/03/14 04:41:14;;;;;;;10.88;2.38;;;;;;;;;;6188163;23;20376;-80
2023/03/14 04:43:40;;;;;;;9.45;2.10;;;;;;;;;;6188978;23;20340;-79
2023/03/14 04:46:06;;;;;;;10.45;2.30;;;;;;;;;;6161939;23;20091;-79
2023/03/14 04:48:33;;;;;;;8.90;1.60;;;;;;;;;;6189130;23;20420;-79
2023/03/14 04:50:58;;;;;;;7.65;1.80;;;;;;;;;;6162206;23;20088;-79
2023/03/14 04:53:24;;;;;;;9.27;2.20;;;;;;;;;;6188977;23;19993;-79
2023/03/14 04:55:54;;;;;;;6.35;1.73;;;;;;;;;;6188182;23;20005;-79
2023/03/14 04:58:21;;;;;;;5.80;1.60;;;;;;;;;;6188684;23;20012;-79
2023/03/14 05:00:47;;;;;;;6.90;1.92;;;;;;;;;;6188230;23;20009;-79
2023/03/14 05:03:15;;;;;;;7.80;2.05;;;;;;;;;;6188701;23;20356;-79
2023/03/14 05:05:41;;;;;;;9.32;2.25;;;;;;;;;;6187947;23;20005;-80
2023/03/14 05:08:07;;;;;;;3.28;1.55;;;;;;;;;;6188335;23;20071;-79
2023/03/14 05:10:33;;;;;;;7.55;1.92;;;;;;;;;;6161475;23;20486;-79
2023/03/14 05:12:59;;;;;;;7.43;1.88;;;;;;;;;;6187414;23;20001;-79
2023/03/14 05:15:25;;;;;;;3.28;1.42;;;;;;;;;;6187051;23;20320;-79
2023/03/14 05:17:51;;;;;;;8.23;1.80;;;;;;;;;;6187614;23;19997;-79
2023/03/14 05:20:19;;;;;;;7.28;2.28;;;;;;;;;;6187990;23;20007;-79
2023/03/14 05:22:45;;;;;;;5.15;1.52;;;;;;;;;;6188032;23;20012;-79
2023/03/14 05:25:11;;;;;;;10.43;2.03;;;;;;;;;;6188073;23;20005;-79
2023/03/14 05:27:37;;;;;;;5.93;1.30;;;;;;;;;;6187602;23;20001;-79
2023/03/14 05:30:04;;;;;;;7.20;1.27;;;;;;;;;;6187208;23;19997;-79
2023/03/14 05:32:30;;;;;;;4.10;1.35;;;;;;;;;;6187377;23;19997;-79
2023/03/14 05:34:58;;;;;;;5.20;1.55;;;;;;;;;;6186978;23;19997;-79
2023/03/14 05:37:24;;;;;;;7.00;1.38;;;;;;;;;;6187606;23;20001;-79
2023/03/14 05:39:50;;;;;;;6.38;1.15;;;;;;;;;;6187203;23;20008;-79
2023/03/14 05:42:16;;;;;;;3.42;0.68;;;;;;;;;;6186949;23;19993;-79
2023/03/14 05:44:42;;;;;;;2.70;1.17;;;;;;;;;;6187767;23;20001;-79
2023/03/14 05:47:08;;;;;;;2.35;0.45;;;;;;;;;;6187608;23;20623;-79
2023/03/14 05:49:34;;;;;;;5.95;0.85;;;;;;;;;;6187681;23;20072;-79
2023/03/14 05:52:00;;;;;;;2.13;0.70;;;;;;;;;;6187162;23;20025;-79
2023/03/14 05:54:26;;;;;;;4.40;0.38;;;;;;;;;;6187803;23;19997;-79
2023/03/14 05:56:52;;;;;;;1.60;0.60;;;;;;;;;;6187625;23;20001;-79
2023/03/14 05:59:18;;;;;;;5.35;0.60;;;;;;;;;;6186840;23;20039;-79
2023/03/14 06:01:44;;;;;;;5.82;1.00;;;;;;;;;;6187270;23;19998;-79
2023/03/14 06:04:11;;;;;;;5.65;1.17;;;;;;;;;;6160711;23;20355;-80
2023/03/14 06:06:37;;;;;;;2.00;0.75;;;;;;;;;;6187182;23;20005;-79
2023/03/14 06:09:03;;;;;;;6.40;1.75;;;;;;;;;;6187274;23;20005;-80
2023/03/14 06:11:29;;;;;;;9.25;1.38;;;;;;;;;;6161200;23;20001;-79
2023/03/14 06:13:54;;;;;;;12.05;1.23;;;;;;;;;;6187577;23;20354;-78
2023/03/14 06:16:20;;;;;;;1.83;0.68;;;;;;;;;;6186775;23;20006;-78
2023/03/14 06:18:48;;;;;;;7.97;1.30;;;;;;;;;;6187209;23;20029;-78
2023/03/14 06:21:14;;;;;;;2.60;0.60;;;;;;;;;;6160462;23;20005;-78
2023/03/14 06:23:40;;;;;;;6.53;1.40;;;;;;;;;;6188372;23;20076;-78
2023/03/14 06:26:06;;;;;;;3.83;0.80;;;;;;;;;;6190270;23;20416;-78
2023/03/14 06:28:32;;;;;;;5.47;1.17;;;;;;;;;;6187963;23;20005;-78
2023/03/14 06:30:59;;;;;;;2.92;0.57;;;;;;;;;;6187863;23;20001;-78
2023/03/14 06:33:25;;;;;;;5.03;1.23;;;;;;;;;;6189756;23;20081;-78
2023/03/14 06:35:51;;;;;;;4.30;1.00;;;;;;;;;;6188904;23;19997;-78
2023/03/14 06:38:18;;;;;;;1.05;0.40;;;;;;;;;;6188825;23;20040;-78
2023/03/14 06:40:44;;;;;;;3.20;0.80;;;;;;;;;;6189450;23;20439;-79
2023/03/14 06:43:10;;;;;;;6.93;1.30;;;;;;;;;;6162315;23;20320;-78
2023/03/14 06:45:36;;;;;;;6.95;1.35;;;;;;;;;;6188851;23;20080;-78
2023/03/14 06:48:03;;;;;;;1.77;0.43;;;;;;;;;;6194824;23;20005;-78
2023/03/14 06:50:35;;;;;;;4.15;1.08;;;;;;;;;;6190026;23;20005;-78
2023/03/14 06:53:01;;;;;;;1.55;0.43;;;;;;;;;;6191760;23;20005;-78
2023/03/14 06:55:27;;;;;;;1.33;0.30;;;;;;;;;;6191610;23;20495;-77
2023/03/14 06:57:53;;;;;;;2.55;0.68;;;;;;;;;;6189373;23;20001;-78
2023/03/14 07:00:19;;;;;;;1.65;0.35;;;;;;;;;;6190098;23;20091;-78
2023/03/14 07:02:45;;;;;;;2.10;0.50;;;;;;;;;;6189937;23;19993;-77
2023/03/14 07:05:11;;;;;;;1.42;0.45;;;;;;;;;;6163377;23;20001;-78
2023/03/14 07:07:37;;;;;;;1.70;0.50;;;;;;;;;;6190072;23;20020;-78
2023/03/14 07:10:04;;;;;;;1.85;0.70;;;;;;;;;;6191773;23;20005;-78
2023/03/14 07:12:30;;;;;;;2.45;0.73;;;;;;;;;;6188901;23;20036;-78
2023/03/14 07:14:56;;;;;;;6.60;1.77;;;;;;;;;;6190358;23;19997;-78
2023/03/14 07:17:21;;;;;;;6.70;1.25;;;;;;;;;;6190155;23;20076;-78
2023/03/14 07:19:47;;;;;;;2.05;0.43;;;;;;;;;;6189397;23;20095;-78
2023/03/14 07:22:14;;;;;;;3.08;0.70;;;;;;;;;;6188728;23;20001;-78
2023/03/14 07:24:40;;;;;;;1.13;0.50;;;;;;;;;;6188373;23;19997;-78
2023/03/14 07:27:06;;;;;;;5.15;1.95;;;;;;;;;;6188895;23;20028;-78
2023/03/14 07:29:31;;;;;;;2.50;0.75;;;;;;;;;;6188157;23;20001;-78
2023/03/14 07:32:05;;;;;;;4.50;1.25;;;;;;;;;;6189369;23;20001;-78
2023/03/14 07:34:32;;;;;;;0.77;0.45;;;;;;;;;;6189262;23;20359;-78
2023/03/14 07:36:58;;;;;;;4.38;1.20;;;;;;;;;;6187835;23;20420;-78
2023/03/14 07:39:24;;;;;;;2.75;1.05;;;;;;;;;;6189514;23;19997;-78
2023/03/14 07:41:50;;;;;;;4.25;0.75;;;;;;;;;;6188017;23;20033;-78
2023/03/14 07:44:16;;;;;;;6.00;1.27;;;;;;;;;;6187834;23;19997;-78
2023/03/14 07:46:42;;;;;;;3.33;0.90;;;;;;;;;;6161189;23;20001;-78
2023/03/14 07:49:08;;;;;;;5.28;1.27;;;;;;;;;;6190630;23;20032;-78
2023/03/14 07:51:34;;;;;;;6.38;1.27;;;;;;;;;;6190014;23;20004;-78
2023/03/14 07:53:59;;;;;;;2.28;0.52;;;;;;;;;;6187584;23;20001;-77
2023/03/14 07:56:25;;;;;;;5.22;1.52;;;;;;;;;;6189353;23;20052;-78
2023/03/14 07:58:51;;;;;;;4.00;0.65;;;;;;;;;;6188239;23;20051;-78
2023/03/14 08:01:17;;;;;;;8.02;1.33;;;;;;;;;;6189983;23;20063;-77
2023/03/14 08:03:43;;;;;;;7.00;0.93;;;;;;;;;;6187338;23;20004;-78
2023/03/14 08:06:09;;;;;;;12.63;1.50;;;;;;;;;;6188772;23;20005;-78
2023/03/14 08:08:35;;;;;;;11.90;1.60;;;;;;;;;;6188320;23;20001;-78
2023/03/14 08:11:05;;;;;;;7.65;1.75;;;;;;;;;;6186972;23;20422;-77
2023/03/14 08:13:40;;;;;;;7.10;1.00;;;;;;;;;;6186481;23;20008;-77
2023/03/14 08:16:09;;;;;;;6.30;1.60;;;;;;;;;;6186121;23;19997;-78
2023/03/14 08:18:35;;;;;;;5.03;1.30;;;;;;;;;;6187238;23;20009;-78
2023/03/14 08:21:01;;;;;;;5.00;0.95;;;;;;;;;;6187000;23;19997;-78
2023/03/14 08:23:27;;;;;;;15.98;2.85;;;;;;;;;;6185621;23;20012;-78
2023/03/14 08:25:53;;;;;;;8.13;1.33;;;;;;;;;;6161070;23;20017;-78
2023/03/14 08:28:19;;;;;;;15.18;1.92;;;;;;;;;;6187585;23;20334;-78
2023/03/14 08:30:45;;;;;;;9.60;1.80;;;;;;;;;;6190494;23;20001;-78
2023/03/14 08:33:11;;;;;;;9.25;1.58;;;;;;;;;;6187458;23;19993;-78
2023/03/14 08:35:40;;;;;;;9.85;1.60;;;;;;;;;;6189297;23;20008;-78
2023/03/14 08:38:06;;;;;;;9.45;1.92;;;;;;;;;;6190833;23;20001;-78
2023/03/14 08:40:32;;;;;;;6.18;1.73;;;;;;;;;;6189491;23;19998;-78
2023/03/14 08:42:58;;;;;;;7.03;1.90;;;;;;;;;;6188085;23;20039;-79
2023/03/14 08:45:24;;;;;;;4.55;0.50;;;;;;;;;;6188250;23;19997;-78
2023/03/14 08:47:51;;;;;;;6.85;1.05;;;;;;;;;;6188861;23;19997;-78
2023/03/14 08:50:17;;;;;;;7.18;1.52;;;;;;;;;;6187545;23;19997;-78
2023/03/14 08:52:43;;;;;;;7.95;1.73;;;;;;;;;;6187124;23;19997;-78
2023/03/14 08:55:09;;;;;;;6.10;1.60;;;;;;;;;;6187441;23;20001;-78
2023/03/14 08:57:37;;;;;;;5.38;1.40;;;;;;;;;;6186741;23;20072;-78
2023/03/14 09:00:10;;;;;;;9.95;2.35;;;;;;;;;;6187456;23;20017;-78
2023/03/14 09:02:36;;;;;;;11.90;2.55;;;;;;;;;;6187433;23;20051;-78
2023/03/14 09:05:02;;;;;;;13.15;2.45;;;;;;;;;;6187651;23;20001;-78
2023/03/14 09:07:28;;;;;;;10.18;2.45;;;;;;;;;;6186399;23;20332;-78
2023/03/14 09:09:54;;;;;;;11.90;1.67;;;;;;;;;;6188838;23;20001;-78
2023/03/14 09:12:20;;;;;;;11.32;2.42;;;;;;;;;;6186696;23;20023;-78
2023/03/14 09:14:46;;;;;;;8.50;2.13;;;;;;;;;;6186030;23;20082;-78
2023/03/14 09:17:15;;;;;;;16.60;2.95;;;;;;;;;;6188007;23;20001;-78
2023/03/14 09:19:41;;;;;;;17.48;3.95;;;;;;;;;;6189651;23;20001;-78
2023/03/14 09:22:07;;;;;;;9.27;2.53;;;;;;;;;;6187311;23;20008;-78
2023/03/14 09:24:33;;;;;;;12.88;2.72;;;;;;;;;;6190454;23;19997;-78
2023/03/14 09:26:59;;;;;;;11.98;2.47;;;;;;;;;;6188587;23;20005;-78
2023/03/14 09:29:25;;;;;;;12.15;2.72;;;;;;;;;;6190278;23;20002;-78
2023/03/14 09:31:51;;;;;;;8.57;2.17;;;;;;;;;;6187920;23;20101;-78
2023/03/14 09:34:18;;;;;;;10.38;2.03;;;;;;;;;;6188993;23;20004;-78
2023/03/14 09:36:44;;;;;;;8.13;2.72;;;;;;;;;;6190151;23;20005;-79
2023/03/14 09:39:11;;;;;;;7.82;1.40;;;;;;;;;;6189308;23;20049;-78
2023/03/14 09:41:40;;;;;;;14.52;2.50;;;;;;;;;;6164010;23;20012;-78
2023/03/14 09:44:14;;;;;;;7.75;1.90;;;;;;;;;;6189971;23;20060;-78
2023/03/14 09:46:42;;;;;;;12.90;2.75;;;;;;;;;;6191257;23;20008;-78
2023/03/14 09:49:12;;;;;;;14.13;3.13;;;;;;;;;;6189862;23;20383;-78
2023/03/14 09:51:38;;;;;;;;;;;;;;;;;;6189240;23;20001;-78
2023/03/14 09:54:05;;;;;;;11.27;2.25;;;;;;;;;;6188285;23;19954;-78
2023/03/14 09:56:33;;;;;;;11.60;2.42;;;;;;;;;;6188285;23;20056;-78
2023/03/14 09:59:00;;;;;;;13.32;2.70;;;;;;;;;;6186149;23;20039;-78
2023/03/14 10:01:33;;;;;;;10.77;2.03;;;;;;;;;;6163589;23;20016;-78
2023/03/14 10:04:04;;;;;;;11.73;2.13;;;;;;;;;;6186454;23;20651;-78
2023/03/14 10:06:31;;;;;;;6.38;0.95;;;;;;;;;;6186125;23;20005;-78
2023/03/14 10:08:57;;;;;;;13.90;2.25;;;;;;;;;;6186157;23;20072;-78
2023/03/14 10:11:24;;;;;;;4.05;1.05;;;;;;;;;;6186329;23;20009;-78
2023/03/14 10:14:12;;;;;;;6.18;1.48;;;;;;;;;;6186120;23;20004;-78
2023/03/14 10:16:42;;;;;;;6.43;1.45;;;;;;;;;;6186573;23;20404;-78
2023/03/14 10:19:11;;;;;;;8.63;1.65;;;;;;;;;;6186042;23;19997;-78
2023/03/14 10:21:38;;;;;;;11.27;2.15;;;;;;;;;;6187799;23;20415;-79
2023/03/14 10:24:09;;;;;;;7.80;1.75;;;;;;;;;;6187872;23;20019;-78
2023/03/14 10:30:09;;;;;;;11.02;2.00;;;;;;;;;;6187918;23;20008;-78
2023/03/14 10:32:36;;;;;;;5.22;1.23;;;;;;;;;;6161335;23;20029;-78
2023/03/14 10:35:08;;;;;;;9.30;1.67;;;;;;;;;;6187920;23;20001;-78
2023/03/14 10:37:34;;;;;;;8.32;1.92;;;;;;;;;;6188037;23;20001;-78
2023/03/14 10:40:05;;;;;;;11.30;2.17;;;;;;;;;;6187782;23;19997;-79
2023/03/14 10:42:33;;;;;;;;;;;;;;;;;;6188263;23;20024;-79
2023/03/14 10:45:09;;;;;;;5.18;1.00;;;;;;;;;;6187354;23;19935;-78
2023/03/14 10:47:35;;;;;;;7.85;1.60;;;;;;;;;;6186434;23;20017;-78
2023/03/14 10:50:24;;;;;;;8.77;1.60;;;;;;;;;;6186411;23;20498;-79
2023/03/14 10:52:50;;;;;;;4.22;1.40;;;;;;;;;;6185224;23;20077;-78
2023/03/14 10:55:17;;;;;;;4.63;1.00;;;;;;;;;;6160043;23;20076;-79
2023/03/14 10:57:43;;;;;;;3.78;1.13;;;;;;;;;;6185743;23;20001;-78
2023/03/14 11:00:32;;;;;;;4.63;1.17;;;;;;;;;;6185280;23;20024;-78
2023/03/14 11:03:04;;;;;;;4.15;1.02;;;;;;;;;;6160276;23;20085;-78
2023/03/14 11:05:43;;;;;;;5.75;1.38;;;;;;;;;;6186346;23;20079;-78
2023/03/14 11:08:16;;;;;;;3.92;0.60;;;;;;;;;;6185952;23;19997;-78
2023/03/14 11:14:01;;;;;;;4.40;1.13;;;;;;;;;;6186341;23;20024;-78
2023/03/14 11:16:29;;;;;;;1.55;0.50;;;;;;;;;;6186079;23;20640;-78
2023/03/14 11:19:09;;;;;;;4.22;0.82;;;;;;;;;;6186019;23;19997;-78
2023/03/14 11:21:56;;;;;;;3.20;1.17;;;;;;;;;;6185974;23;20005;-78
2023/03/14 11:24:22;;;;;;;6.13;1.15;;;;;;;;;;6186114;23;20024;-78
2023/03/14 11:27:07;;;;;;;3.38;0.60;;;;;;;;;;6186327;23;20005;-78
2023/03/14 11:29:40;;;;;;;3.50;0.52;;;;;;;;;;6159566;23;20009;-79
2023/03/14 11:32:12;;;;;;;5.05;1.40;;;;;;;;;;6185921;23;19997;-78
2023/03/14 11:34:57;;;;;;;4.70;1.02;;;;;;;;;;6185969;23;20005;-78
2023/03/14 11:37:22;;;;;;;5.22;0.95;;;;;;;;;;6185713;23;20486;-78
2023/03/14 11:39:56;;;;;;;6.30;1.38;;;;;;;;;;6185978;23;20001;-78
2023/03/14 11:42:23;;;;;;;5.65;0.88;;;;;;;;;;6185914;23;20688;-78
2023/03/14 11:44:50;;;;;;;2.45;0.73;;;;;;;;;;6185686;23;20435;-78
2023/03/14 11:47:18;;;;;;;2.63;0.82;;;;;;;;;;6185806;23;20008;-78
2023/03/14 11:49:47;;;;;;;4.80;0.95;;;;;;;;;;6186385;23;20001;-79
2023/03/14 11:52:17;;;;;;;2.63;0.50;;;;;;;;;;6160758;23;20084;-79
2023/03/14 11:55:06;;;;;;;3.58;1.23;;;;;;;;;;6189514;23;19993;-79
2023/03/14 11:57:32;;;;;;;6.88;1.02;;;;;;;;;;6159581;23;20012;-79
2023/03/14 11:59:58;;;;;;;5.10;0.70;;;;;;;;;;6185967;23;20013;-79
2023/03/14 12:02:27;;;;;;;4.68;0.88;;;;;;;;;;6185822;23;20344;-78
2023/03/14 12:04:56;;;;;;;3.57;0.67;;;;;;;;;;6186417;23;20078;-78
2023/03/14 12:07:42;;;;;;;2.22;0.52;;;;;;;;;;6162094;23;20295;-79
2023/03/14 12:10:08;;;;;;;2.30;0.70;;;;;;;;;;6191640;23;20000;-80
2023/03/14 12:12:41;;;;;;;4.80;0.88;;;;;;;;;;6191295;23;20036;-79
2023/03/14 12:15:18;;;;;;;5.53;1.50;;;;;;;;;;6193383;23;19997;-80
2023/03/14 12:17:45;;;;;;;4.10;0.73;;;;;;;;;;6193035;23;20024;-80
2023/03/14 12:20:20;;;;;;;2.08;0.50;;;;;;;;;;6166574;23;19997;-80
2023/03/14 12:22:54;;;;;;;2.80;0.80;;;;;;;;;;6207159;23;20001;-82
2023/03/14 12:25:22;;;;;;;7.75;1.17;;;;;;;;;;6200198;23;20001;-81
2023/03/14 12:27:48;;;;;;;4.50;0.80;;;;;;;;;;6201979;23;20494;-81
2023/03/14 12:30:25;;;;;;;0.85;0.40;;;;;;;;;;6181863;23;20029;-81
2023/03/14 12:33:09;;;;;;;6.53;1.25;;;;;;;;;;6188219;23;19997;-81
2023/03/14 12:38:58;;;;;;;5.53;1.35;;;;;;;;;;6190628;23;20071;-81
2023/03/14 12:41:29;;;;;;;4.65;0.88;;;;;;;;;;6161673;23;20382;-81
2023/03/14 12:43:55;;;;;;;1.67;0.60;;;;;;;;;;6187176;23;20048;-81
2023/03/14 12:46:23;;;;;;;3.35;1.05;;;;;;;;;;6187190;23;20000;-81
2023/03/14 12:49:05;;;;;;;1.90;0.68;;;;;;;;;;6187341;23;20423;-81
2023/03/14 12:51:43;;;;;;;4.85;1.17;;;;;;;;;;6171596;23;20009;-81
2023/03/14 12:54:29;;;;;;;3.75;0.70;;;;;;;;;;6195315;23;20005;-81
2023/03/14 12:57:01;;;;;;;6.40;1.30;;;;;;;;;;6195170;23;20004;-81
2023/03/14 12:59:54;;;;;;;6.47;1.48;;;;;;;;;;6194247;23;20072;-80
2023/03/14 13:02:28;;;;;;;7.13;1.05;;;;;;;;;;6189930;23;20039;-81
2023/03/14 13:05:02;;;;;;;4.95;1.20;;;;;;;;;;6194422;23;20049;-81
2023/03/14 13:07:31;;;;;;;1.20;0.43;;;;;;;;;;6193689;23;20015;-81
2023/03/14 13:10:00;;;;;;;2.55;0.47;;;;;;;;;;6194109;23;20375;-81
2023/03/14 13:12:31;;;;;;;5.85;0.77;;;;;;;;;;6192533;23;20445;-81
2023/03/14 13:14:59;;;;;;;5.35;1.00;;;;;;;;;;6167383;23;20360;-81
2023/03/14 13:17:40;;;;;;;3.60;1.02;;;;;;;;;;6164460;23;20293;-81
2023/03/14 13:23:28;;;;;;;6.13;0.75;;;;;;;;;;6187908;23;20019;-81
2023/03/14 13:25:54;;;;;;;1.35;0.47;;;;;;;;;;6189696;23;20305;-82
2023/03/14 13:28:21;;;;;;;2.20;0.68;;;;;;;;;;6188079;23;20416;-81
2023/03/14 13:30:48;;;;;;;2.03;0.43;;;;;;;;;;6187340;23;20009;-81
2023/03/14 13:33:18;;;;;;;2.22;1.08;;;;;;;;;;6192227;23;20025;-81
2023/03/14 13:35:48;;;;;;;6.07;0.77;;;;;;;;;;6191332;23;20550;-81
2023/03/14 13:38:16;;;;;;;3.28;0.77;;;;;;;;;;6192988;23;20005;-81
2023/03/14 13:40:44;;;;;;;2.53;0.80;;;;;;;;;;6193401;23;20001;-81
2023/03/14 13:43:10;;;;;;;2.17;0.77;;;;;;;;;;6193662;23;20001;-81
2023/03/14 13:45:48;;;;;;;2.97;0.50;;;;;;;;;;6192827;23;20316;-81
2023/03/14 13:48:17;;;;;;;4.85;0.93;;;;;;;;;;6186980;23;20009;-81
2023/03/14 13:51:00;;;;;;;5.13;1.08;;;;;;;;;;6187806;23;20023;-81
2023/03/14 13:53:26;;;;;;;3.28;0.70;;;;;;;;;;6185751;23;20005;-81
2023/03/14 13:55:52;;;;;;;2.28;0.52;;;;;;;;;;6186574;23;20004;-81
2023/03/14 13:58:26;;;;;;;2.78;1.30;;;;;;;;;;6185977;23;20001;-81
2023/03/14 14:01:11;;;;;;;2.88;0.55;;;;;;;;;;6188056;23;20039;-81
2023/03/14 14:03:44;;;;;;;3.17;0.73;;;;;;;;;;6190310;23;20001;-81
2023/03/14 14:06:27;;;;;;;6.95;1.02;;;;;;;;;;6189252;23;20024;-81
2023/03/14 14:08:53;;;;;;;3.67;1.17;;;;;;;;;;6189313;23;20029;-81
2023/03/14 14:11:29;;;;;;;2.17;0.95;;;;;;;;;;6188844;23;20008;-81
2023/03/14 14:13:55;;;;;;;2.95;0.47;;;;;;;;;;6188759;23;20003;-81
2023/03/14 14:16:24;;;;;;;3.38;0.73;;;;;;;;;;6188913;23;19997;-81
2023/03/14 14:18:51;;;;;;;6.88;1.33;;;;;;;;;;6189081;23;20040;-81
2023/03/14 14:21:17;;;;;;;3.92;0.70;;;;;;;;;;6188602;23;20123;-81
2023/03/14 14:23:43;;;;;;;7.53;0.95;;;;;;;;;;6188721;23;20327;-81
2023/03/14 14:26:14;;;;;;;4.35;0.95;;;;;;;;;;6162719;23;20020;-81
2023/03/14 14:28:41;;;;;;;5.38;0.65;;;;;;;;;;6189328;23;20001;-81
2023/03/14 14:31:19;;;;;;;6.03;0.85;;;;;;;;;;6190422;23;19998;-82
2023/03/14 14:33:55;;;;;;;3.03;0.43;;;;;;;;;;6191042;23;20050;-81
2023/03/14 14:36:32;;;;;;;6.15;0.88;;;;;;;;;;6190240;23;20001;-81
2023/03/14 14:39:04;;;;;;;5.85;0.88;;;;;;;;;;6192091;23;20012;-80
2023/03/14 14:41:32;;;;;;;7.10;0.88;;;;;;;;;;6190803;23;20005;-81
2023/03/14 14:43:59;;;;;;;2.40;0.52;;;;;;;;;;6191433;23;20004;-80
2023/03/14 14:46:27;;;;;;;2.72;0.57;;;;;;;;;;6190569;23;20025;-80
2023/03/14 14:48:56;;;;;;;3.45;0.70;;;;;;;;;;6191390;23;20005;-80
2023/03/14 14:51:26;;;;;;;3.38;0.70;;;;;;;;;;6191184;23;19998;-80
2023/03/14 14:54:03;;;;;;;2.00;0.60;;;;;;;;;;6191459;23;19997;-81
2023/03/14 14:56:29;;;;;;;3.55;1.02;;;;;;;;;;6191486;23;20001;-80
2023/03/14 14:59:01;;;;;;;2.53;0.82;;;;;;;;;;6186550;23;19997;-80